createdAt,value
2022-09-06T00:01:11.021Z,15.54
2022-09-06T00:03:43.202Z,15.44
2022-09-06T00:06:17.032Z,15.34
2022-09-06T00:08:49.683Z,15.38
2022-09-06T00:11:21.822Z,15.26
2022-09-06T00:13:53.708Z,15.33
2022-09-06T00:16:30.567Z,15.29
2022-09-06T00:19:02.484Z,15.17
2022-09-06T00:21:35.765Z,15.15
2022-09-06T00:24:07.731Z,15.28
2022-09-06T00:26:39.899Z,15.32
2022-09-06T00:29:11.816Z,15.25
2022-09-06T00:31:43.691Z,15.28
2022-09-06T00:34:15.555Z,15.08
2022-09-06T00:36:47.342Z,15.11
2022-09-06T00:39:19.161Z,15.01
2022-09-06T00:41:51.233Z,15.07
2022-09-06T00:44:23.006Z,15.12
2022-09-06T00:46:56.511Z,15.13
2022-09-06T00:49:32.875Z,15.12
2022-09-06T00:52:09.279Z,14.92
2022-09-06T00:54:42.498Z,14.91
2022-09-06T00:57:15.582Z,14.96
2022-09-06T00:59:49.196Z,14.92
2022-09-06T01:02:21.078Z,14.92
2022-09-06T01:04:53.277Z,14.93
2022-09-06T01:07:37.642Z,14.91
2022-09-06T01:10:27.422Z,14.88
2022-09-06T01:13:05.722Z,14.80
2022-09-06T01:15:51.068Z,14.84
2022-09-06T01:18:51.086Z,14.82
2022-09-06T01:21:36.608Z,14.79
2022-09-06T01:24:33.776Z,14.74
2022-09-06T01:27:47.720Z,14.72
2022-09-06T01:30:20.886Z,14.73
2022-09-06T01:32:58.329Z,14.67
2022-09-06T01:35:36.290Z,14.61
2022-09-06T01:38:09.721Z,14.58
2022-09-06T01:40:41.597Z,14.53
2022-09-06T01:43:25.003Z,14.47
2022-09-06T01:46:08.492Z,14.57
2022-09-06T01:48:54.661Z,14.55
2022-09-06T01:51:31.567Z,14.48
2022-09-06T01:54:17.165Z,14.50
2022-09-06T01:56:59.571Z,14.32
2022-09-06T01:59:55.702Z,14.33
2022-09-06T02:02:35.983Z,14.25
2022-09-06T02:05:14.601Z,14.26
2022-09-06T02:07:48.665Z,14.23
2022-09-06T02:10:25.532Z,14.26
2022-09-06T02:13:02.120Z,13.95
2022-09-06T02:15:36.727Z,14.15
2022-09-06T02:18:13.518Z,14.17
2022-09-06T02:20:50.106Z,14.19
2022-09-06T02:23:24.807Z,14.16
2022-09-06T02:26:00.388Z,14.07
2022-09-06T02:28:32.772Z,14.04
2022-09-06T02:31:10.280Z,14.04
2022-09-06T02:33:45.328Z,14.01
2022-09-06T02:36:17.414Z,14.03
2022-09-06T02:38:49.781Z,13.97
2022-09-06T02:41:24.185Z,14.03
2022-09-06T02:43:56.055Z,13.98
2022-09-06T02:46:27.993Z,13.97
2022-09-06T02:48:59.901Z,13.92
2022-09-06T02:51:32.024Z,13.90
2022-09-06T02:54:04.215Z,13.92
2022-09-06T02:56:36.707Z,13.85
2022-09-06T02:59:10.113Z,13.89
2022-09-06T03:01:42.083Z,13.88
2022-09-06T03:04:13.987Z,13.64
2022-09-06T03:06:45.751Z,13.71
2022-09-06T03:09:17.630Z,13.68
2022-09-06T03:11:49.401Z,13.73
2022-09-06T03:14:21.298Z,13.70
2022-09-06T03:16:53.110Z,13.60
2022-09-06T03:19:25.083Z,13.64
2022-09-06T03:21:56.876Z,13.67
2022-09-06T03:24:28.630Z,13.65
2022-09-06T03:27:00.454Z,13.70
2022-09-06T03:29:32.391Z,13.34
2022-09-06T03:32:04.788Z,13.26
2022-09-06T03:34:36.770Z,13.28
2022-09-06T03:37:08.804Z,13.46
2022-09-06T03:39:40.802Z,13.33
2022-09-06T03:42:12.800Z,13.44
2022-09-06T03:44:44.675Z,13.41
2022-09-06T03:47:19.490Z,13.42
2022-09-06T03:49:52.068Z,13.31
2022-09-06T03:52:23.951Z,13.34
2022-09-06T03:54:55.805Z,13.35
2022-09-06T03:57:28.483Z,13.40
2022-09-06T04:00:00.637Z,13.35
2022-09-06T04:02:32.878Z,13.14
2022-09-06T04:05:04.765Z,12.98
2022-09-06T04:07:37.930Z,13.00
2022-09-06T04:10:11.048Z,13.07
2022-09-06T04:12:42.957Z,13.16
2022-09-06T04:15:15.247Z,13.20
2022-09-06T04:17:48.271Z,13.24
2022-09-06T04:20:20.267Z,13.14
2022-09-06T04:22:52.180Z,13.07
2022-09-06T04:25:24.020Z,12.94
2022-09-06T04:27:55.919Z,12.98
2022-09-06T04:30:27.817Z,13.06
2022-09-06T04:32:59.785Z,13.05
2022-09-06T04:35:31.789Z,13.01
2022-09-06T04:38:04.481Z,13.07
2022-09-06T04:40:36.380Z,13.08
2022-09-06T04:43:08.207Z,13.13
2022-09-06T04:45:40.289Z,13.08
2022-09-06T04:48:12.193Z,13.08
2022-09-06T04:50:44.287Z,13.12
2022-09-06T04:53:16.232Z,13.10
2022-09-06T04:55:48.273Z,13.04
2022-09-06T04:58:20.246Z,12.98
2022-09-06T05:00:52.244Z,12.92
2022-09-06T05:03:24.369Z,12.91
2022-09-06T05:06:07.200Z,12.94
2022-09-06T05:08:41.543Z,12.92
2022-09-06T05:11:13.592Z,12.86
2022-09-06T05:13:46.486Z,12.89
2022-09-06T05:16:18.650Z,13.00
2022-09-06T05:18:50.518Z,13.08
2022-09-06T05:21:23.012Z,13.04
2022-09-06T05:23:58.536Z,13.13
2022-09-06T05:26:30.920Z,13.18
2022-09-06T05:29:02.844Z,13.22
2022-09-06T05:31:36.369Z,13.21
2022-09-06T05:34:08.214Z,13.22
2022-09-06T05:36:41.654Z,13.15
2022-09-06T05:39:13.775Z,13.24
2022-09-06T05:41:45.710Z,13.27
2022-09-06T05:44:17.909Z,13.21
2022-09-06T05:46:50.064Z,13.33
2022-09-06T05:49:21.970Z,13.36
2022-09-06T05:51:54.686Z,13.26
2022-09-06T05:54:25.274Z,13.36
2022-09-06T05:56:57.183Z,13.41
2022-09-06T05:59:29.051Z,13.33
2022-09-06T06:02:08.229Z,13.43
2022-09-06T06:04:40.182Z,13.58
2022-09-06T06:07:12.188Z,13.81
2022-09-06T06:09:44.505Z,13.86
2022-09-06T06:12:16.358Z,13.82
2022-09-06T06:14:48.168Z,13.68
2022-09-06T06:17:20.134Z,13.79
2022-09-06T06:19:51.908Z,13.90
2022-09-06T06:22:23.796Z,13.90
2022-09-06T06:24:55.686Z,14.04
2022-09-06T06:27:27.508Z,14.20
2022-09-06T06:29:59.662Z,14.17
2022-09-06T06:32:31.516Z,14.28
2022-09-06T06:35:03.541Z,14.19
2022-09-06T06:37:37.093Z,14.26
2022-09-06T06:40:10.798Z,14.38
2022-09-06T06:42:42.760Z,14.41
2022-09-06T06:45:14.957Z,14.51
2022-09-06T06:47:49.979Z,14.59
2022-09-06T06:50:22.038Z,14.65
2022-09-06T06:52:54.254Z,14.72
2022-09-06T06:55:26.381Z,14.80
2022-09-06T06:58:00.535Z,14.90
2022-09-06T07:00:32.590Z,14.94
2022-09-06T07:03:04.830Z,14.99
2022-09-06T07:08:29.174Z,15.06
2022-09-06T07:11:01.517Z,15.06
2022-09-06T07:13:34.159Z,15.21
2022-09-06T07:16:16.028Z,15.27
2022-09-06T07:18:48.333Z,15.31
2022-09-06T07:21:41.679Z,15.43
2022-09-06T07:24:14.525Z,15.53
2022-09-06T07:29:38.273Z,15.66
2022-09-06T07:34:47.233Z,15.80
2022-09-06T07:37:19.203Z,15.90
2022-09-06T07:39:51.120Z,16.00
2022-09-06T07:42:23.186Z,16.03
2022-09-06T07:44:57.739Z,16.06
2022-09-06T07:53:16.663Z,16.21
2022-09-06T07:55:53.914Z,16.34
2022-09-06T07:58:25.928Z,16.46
2022-09-06T08:01:14.827Z,16.57
2022-09-06T08:03:48.420Z,16.69
2022-09-06T08:06:24.668Z,16.76
2022-09-06T08:08:57.649Z,16.82
2022-09-06T08:11:32.148Z,16.85
2022-09-06T08:14:06.041Z,16.87
2022-09-06T08:16:39.386Z,16.98
2022-09-06T08:19:12.451Z,17.04
2022-09-06T08:21:44.503Z,17.07
2022-09-06T08:24:16.607Z,17.14
2022-09-06T08:26:48.582Z,17.24
2022-09-06T08:29:20.996Z,17.35
2022-09-06T08:31:53.802Z,17.55
2022-09-06T08:34:25.882Z,17.59
2022-09-06T08:36:57.753Z,17.66
2022-09-06T08:39:29.798Z,17.78
2022-09-06T08:42:06.349Z,17.81
2022-09-06T08:44:58.493Z,17.87
2022-09-06T08:47:31.196Z,17.91
2022-09-06T08:50:07.459Z,18.00
2022-09-06T08:53:13.647Z,18.08
2022-09-06T08:55:50.316Z,18.32
2022-09-06T08:58:36.066Z,18.34
2022-09-06T09:01:16.081Z,18.39
2022-09-06T09:03:48.395Z,18.48
2022-09-06T09:06:20.531Z,18.59
2022-09-06T09:09:02.720Z,18.70
2022-09-06T09:11:36.397Z,18.76
2022-09-06T09:14:17.210Z,18.95
2022-09-06T09:16:53.640Z,19.01
2022-09-06T09:19:25.557Z,19.10
2022-09-06T09:21:58.316Z,19.25
2022-09-06T09:24:28.629Z,19.31
2022-09-06T09:27:06.868Z,19.40
2022-09-06T09:32:52.909Z,19.48
2022-09-06T09:35:33.938Z,19.57
2022-09-06T09:38:12.013Z,19.67
2022-09-06T09:40:53.179Z,19.75
2022-09-06T09:43:27.906Z,19.92
2022-09-06T09:46:18.644Z,20.05
2022-09-06T09:49:05.936Z,20.28
2022-09-06T09:51:39.569Z,20.50
2022-09-06T09:54:13.669Z,20.61
2022-09-06T09:56:51.735Z,20.65
2022-09-06T09:59:27.901Z,20.71
2022-09-06T10:02:01.686Z,20.88
2022-09-06T10:04:45.446Z,21.08
2022-09-06T10:07:19.780Z,21.21
2022-09-06T10:09:59.282Z,21.37
2022-09-06T10:12:36.375Z,21.54
2022-09-06T10:15:12.374Z,21.61
2022-09-06T10:17:52.879Z,21.67
2022-09-06T10:20:33.543Z,21.77
2022-09-06T10:23:16.172Z,21.87
2022-09-06T10:25:52.789Z,21.94
2022-09-06T10:28:41.759Z,22.11
2022-09-06T10:31:38.014Z,22.30
2022-09-06T10:34:29.458Z,22.43
2022-09-06T10:37:12.396Z,22.49
2022-09-06T10:39:49.047Z,22.68
2022-09-06T10:42:32.301Z,22.80
2022-09-06T10:45:22.090Z,22.85
2022-09-06T10:48:04.689Z,22.86
2022-09-06T10:50:44.986Z,22.89
2022-09-06T10:53:27.399Z,22.86
2022-09-06T10:56:05.824Z,22.77
2022-09-06T11:01:42.595Z,22.91
2022-09-06T11:04:23.209Z,22.73
2022-09-06T11:07:00.455Z,23.04
2022-09-06T11:09:35.743Z,23.37
2022-09-06T11:12:12.020Z,23.61
2022-09-06T11:14:43.942Z,23.71
2022-09-06T11:17:23.672Z,23.73
2022-09-06T11:20:05.936Z,23.80
2022-09-06T11:23:02.426Z,23.89
2022-09-06T11:26:04.988Z,23.80
2022-09-06T11:28:45.190Z,24.02
2022-09-06T11:34:25.294Z,23.77
2022-09-06T11:36:59.757Z,23.78
2022-09-06T11:43:04.412Z,24.00
2022-09-06T11:45:49.444Z,23.93
2022-09-06T11:48:37.971Z,24.12
2022-09-06T11:51:12.435Z,24.01
2022-09-06T11:54:23.074Z,23.88
2022-09-06T11:56:59.673Z,23.97
2022-09-06T11:59:38.245Z,24.05
2022-09-06T12:02:40.997Z,23.69
2022-09-06T12:05:22.478Z,23.68
2022-09-06T12:08:34.333Z,23.79
2022-09-06T12:11:30.623Z,23.70
2022-09-06T12:14:05.873Z,23.64
2022-09-06T12:17:11.507Z,23.44
2022-09-06T12:19:46.942Z,23.41
2022-09-06T12:23:04.565Z,23.33
2022-09-06T12:25:58.525Z,23.25
2022-09-06T12:28:42.269Z,23.47
2022-09-06T12:31:41.037Z,23.53
2022-09-06T12:34:18.817Z,23.47
2022-09-06T12:37:02.654Z,23.58
2022-09-06T12:39:35.160Z,23.79
2022-09-06T12:42:12.126Z,23.75
2022-09-06T12:44:49.208Z,23.33
2022-09-06T12:47:25.417Z,23.46
2022-09-06T12:50:18.528Z,23.38
2022-09-06T12:52:53.589Z,23.36
2022-09-06T12:55:28.948Z,23.53
2022-09-06T12:58:03.242Z,23.54
2022-09-06T13:00:38.788Z,23.47
2022-09-06T13:03:26.949Z,23.42
2022-09-06T13:06:01.238Z,23.45
2022-09-06T13:08:37.624Z,23.55
2022-09-06T13:11:14.645Z,23.36
2022-09-06T13:13:52.065Z,23.31
2022-09-06T13:16:26.895Z,23.32
2022-09-06T13:19:13.676Z,23.25
2022-09-06T13:21:47.624Z,23.21
2022-09-06T13:24:25.023Z,23.28
2022-09-06T13:26:57.420Z,23.25
2022-09-06T13:29:33.881Z,23.37
2022-09-06T13:32:09.559Z,23.30
2022-09-06T13:34:56.730Z,23.22
2022-09-06T13:37:31.550Z,23.42
2022-09-06T13:40:05.737Z,23.47
2022-09-06T13:42:38.905Z,23.35
2022-09-06T13:45:26.349Z,23.36
2022-09-06T13:48:13.052Z,23.27
2022-09-06T13:50:50.224Z,23.24
2022-09-06T13:53:23.449Z,23.22
2022-09-06T13:55:55.273Z,23.25
2022-09-06T13:58:27.797Z,23.27
2022-09-06T14:01:01.244Z,23.30
2022-09-06T14:03:34.377Z,23.30
2022-09-06T14:06:08.034Z,23.27
2022-09-06T14:11:32.422Z,23.16
2022-09-06T14:14:04.339Z,23.10
2022-09-06T14:16:36.887Z,23.08
2022-09-06T14:19:09.807Z,22.93
2022-09-06T14:21:41.643Z,22.93
2022-09-06T14:24:13.497Z,22.99
2022-09-06T14:26:45.418Z,22.94
2022-09-06T14:29:17.519Z,22.96
2022-09-06T14:31:49.468Z,23.07
2022-09-06T14:34:21.938Z,23.14
2022-09-06T14:36:52.834Z,23.10
2022-09-06T14:39:24.877Z,22.93
2022-09-06T14:41:56.671Z,23.04
2022-09-06T14:44:28.524Z,22.94
2022-09-06T14:47:00.301Z,22.97
2022-09-06T14:49:32.217Z,22.82
2022-09-06T14:52:04.517Z,22.84
2022-09-06T14:54:35.003Z,22.86
2022-09-06T14:57:06.806Z,22.74
2022-09-06T14:59:41.228Z,22.69
2022-09-06T15:02:13.061Z,22.68
2022-09-06T15:04:46.098Z,22.67
2022-09-06T15:07:18.325Z,22.61
2022-09-06T15:09:51.095Z,22.63
2022-09-06T15:12:23.014Z,22.59
2022-09-06T15:14:54.845Z,22.66
2022-09-06T15:17:26.675Z,22.75
2022-09-06T15:19:58.504Z,22.65
2022-09-06T15:22:30.471Z,22.72
2022-09-06T15:25:02.497Z,22.57
2022-09-06T15:27:34.421Z,22.41
2022-09-06T15:30:07.473Z,22.36
2022-09-06T15:32:39.349Z,22.35
2022-09-06T15:35:11.927Z,22.29
2022-09-06T15:37:42.147Z,22.36
2022-09-06T15:40:14.210Z,22.15
2022-09-06T15:42:46.123Z,22.12
2022-09-06T15:45:18.122Z,22.12
2022-09-06T15:47:49.877Z,22.08
2022-09-06T15:50:40.675Z,22.07
2022-09-06T15:53:13.541Z,22.09
2022-09-06T15:55:57.258Z,22.06
2022-09-06T15:58:30.377Z,22.01
2022-09-06T16:01:10.431Z,22.00
2022-09-06T16:03:44.319Z,22.00
2022-09-06T16:06:26.821Z,21.97
2022-09-06T16:09:02.002Z,21.95
2022-09-06T16:11:37.081Z,21.84
2022-09-06T16:14:12.108Z,21.81
2022-09-06T16:16:44.839Z,21.82
2022-09-06T16:19:16.937Z,21.76
2022-09-06T16:21:48.811Z,21.71
2022-09-06T16:24:21.401Z,21.71
2022-09-06T16:26:53.542Z,21.67
2022-09-06T16:29:25.345Z,21.63
2022-09-06T16:31:59.878Z,21.62
2022-09-06T16:34:32.047Z,21.56
2022-09-06T16:37:07.841Z,21.56
2022-09-06T16:39:39.710Z,21.53
2022-09-06T16:42:12.483Z,21.37
2022-09-06T16:44:44.493Z,21.29
2022-09-06T16:47:16.851Z,21.21
2022-09-06T16:49:48.809Z,21.24
2022-09-06T16:52:20.588Z,21.28
2022-09-06T16:54:52.624Z,21.26
2022-09-06T16:57:25.004Z,21.21
2022-09-06T16:59:56.807Z,21.16
2022-09-06T17:02:28.683Z,21.10
2022-09-06T17:05:00.522Z,21.08
2022-09-06T17:07:33.037Z,20.98
2022-09-06T17:10:05.213Z,21.01
2022-09-06T17:12:37.292Z,21.01
2022-09-06T17:15:10.574Z,20.88
2022-09-06T17:17:42.421Z,20.78
2022-09-06T17:20:15.700Z,20.66
2022-09-06T17:22:52.209Z,20.57
2022-09-06T17:25:24.012Z,20.48
2022-09-06T17:27:56.025Z,20.40
2022-09-06T17:30:27.928Z,20.34
2022-09-06T17:32:59.700Z,20.26
2022-09-06T17:35:31.430Z,20.13
2022-09-06T17:38:03.165Z,20.09
2022-09-06T17:40:35.376Z,20.04
2022-09-06T17:43:07.331Z,19.96
2022-09-06T17:45:43.546Z,19.91
2022-09-06T17:48:15.282Z,19.92
2022-09-06T17:50:46.978Z,19.84
2022-09-06T17:53:18.732Z,19.78
2022-09-06T17:55:52.191Z,19.63
2022-09-06T17:58:24.015Z,19.62
2022-09-06T18:00:55.909Z,19.49
2022-09-06T18:03:27.754Z,19.49
2022-09-06T18:06:04.918Z,19.49
2022-09-06T18:08:37.237Z,19.41
2022-09-06T18:11:14.430Z,19.42
2022-09-06T18:13:47.148Z,19.41
2022-09-06T18:16:18.847Z,19.36
2022-09-06T18:18:54.799Z,19.34
2022-09-06T18:21:29.117Z,19.28
2022-09-06T18:24:01.758Z,19.26
2022-09-06T18:26:32.107Z,19.25
2022-09-06T18:29:06.962Z,19.14
2022-09-06T18:31:38.981Z,19.02
2022-09-06T18:34:10.715Z,19.03
2022-09-06T18:36:43.526Z,18.94
2022-09-06T18:39:16.618Z,18.86
2022-09-06T18:42:01.317Z,18.80
2022-09-06T18:44:35.888Z,18.77
2022-09-06T18:47:09.883Z,18.69
2022-09-06T18:49:44.292Z,18.63
2022-09-06T18:52:16.468Z,18.59
2022-09-06T18:54:49.618Z,18.60
2022-09-06T18:57:22.432Z,18.49
2022-09-06T18:59:55.108Z,18.50
2022-09-06T19:02:28.830Z,18.49
2022-09-06T19:05:01.080Z,18.50
2022-09-06T19:07:33.516Z,18.46
2022-09-06T19:10:06.658Z,18.41
2022-09-06T19:12:39.129Z,18.44
2022-09-06T19:15:12.251Z,18.43
2022-09-06T19:17:44.834Z,18.35
2022-09-06T19:20:17.515Z,18.27
2022-09-06T19:22:51.529Z,18.25
2022-09-06T19:25:24.124Z,18.27
2022-09-06T19:27:56.427Z,18.17
2022-09-06T19:30:29.075Z,18.16
2022-09-06T19:33:00.292Z,18.20
2022-09-06T19:35:32.809Z,18.24
2022-09-06T19:38:05.208Z,18.20
2022-09-06T19:40:37.414Z,18.20
2022-09-06T19:43:09.643Z,18.22
2022-09-06T19:45:42.380Z,18.21
2022-09-06T19:48:12.784Z,18.13
2022-09-06T19:50:44.606Z,18.04
2022-09-06T19:53:16.762Z,18.01
2022-09-06T19:55:48.740Z,18.06
2022-09-06T19:58:20.892Z,17.98
2022-09-06T20:00:53.614Z,18.05
2022-09-06T20:03:25.584Z,18.05
2022-09-06T20:06:00.772Z,18.03
2022-09-06T20:08:33.311Z,17.99
2022-09-06T20:11:05.127Z,17.94
2022-09-06T20:13:40.052Z,17.90
2022-09-06T20:16:13.512Z,17.88
2022-09-06T20:18:45.789Z,17.88
2022-09-06T20:21:18.982Z,17.86
2022-09-06T20:23:54.224Z,17.79
2022-09-06T20:26:28.010Z,17.70
2022-09-06T20:29:01.606Z,17.73
2022-09-06T20:31:35.067Z,17.68
2022-09-06T20:34:07.943Z,17.68
2022-09-06T20:36:40.560Z,17.68
2022-09-06T20:39:10.983Z,17.62
2022-09-06T20:41:43.672Z,17.63
2022-09-06T20:44:14.037Z,17.60
2022-09-06T20:46:45.813Z,17.59
2022-09-06T20:49:18.953Z,17.61
2022-09-06T20:51:50.975Z,17.55
2022-09-06T20:54:23.068Z,17.51
2022-09-06T20:56:55.166Z,17.46
2022-09-06T20:59:27.547Z,17.41
2022-09-06T21:01:59.676Z,17.40
2022-09-06T21:04:31.694Z,17.42
2022-09-06T21:07:03.567Z,17.41
2022-09-06T21:09:35.664Z,17.41
2022-09-06T21:12:07.918Z,17.37
2022-09-06T21:14:39.700Z,17.35
2022-09-06T21:17:11.539Z,17.38
2022-09-06T21:19:43.614Z,17.26
2022-09-06T21:22:15.765Z,17.24
2022-09-06T21:24:47.580Z,17.30
2022-09-06T21:27:19.559Z,17.21
2022-09-06T21:29:51.273Z,17.16
2022-09-06T21:32:23.069Z,17.11
2022-09-06T21:34:54.730Z,17.03
2022-09-06T21:37:26.442Z,17.00
2022-09-06T21:39:58.367Z,17.06
2022-09-06T21:42:31.788Z,17.00
2022-09-06T21:45:03.452Z,17.01
2022-09-06T21:47:35.338Z,16.94
2022-09-06T21:50:08.046Z,16.85
2022-09-06T21:52:39.877Z,16.92
2022-09-06T21:55:15.451Z,16.93
2022-09-06T21:57:47.407Z,16.79
2022-09-06T22:00:19.398Z,16.77
2022-09-06T22:02:51.426Z,16.80
2022-09-06T22:05:23.235Z,16.69
2022-09-06T22:07:54.875Z,16.70
2022-09-06T22:10:26.912Z,16.59
2022-09-06T22:12:58.509Z,16.46
2022-09-06T22:15:30.257Z,16.51
2022-09-06T22:18:02.016Z,16.55
2022-09-06T22:20:34.223Z,16.46
2022-09-06T22:23:07.336Z,16.46
2022-09-06T22:25:39.042Z,16.48
2022-09-06T22:28:10.812Z,16.44
2022-09-06T22:30:42.866Z,16.33
2022-09-06T22:33:14.518Z,16.22
2022-09-06T22:35:46.253Z,16.23
2022-09-06T22:38:18.057Z,16.16
2022-09-06T22:40:49.962Z,16.21
2022-09-06T22:43:21.938Z,16.21
2022-09-06T22:45:53.637Z,16.13
2022-09-06T22:48:25.373Z,16.15
2022-09-06T22:50:57.100Z,16.14
2022-09-06T22:53:29.741Z,16.07
2022-09-06T22:56:02.474Z,16.04
2022-09-06T22:58:36.136Z,16.04
2022-09-06T23:01:13.455Z,15.96
2022-09-06T23:03:45.947Z,15.82
2022-09-06T23:06:17.947Z,15.89
2022-09-06T23:08:49.598Z,15.93
2022-09-06T23:11:21.751Z,15.87
2022-09-06T23:13:58.156Z,15.82
2022-09-06T23:16:30.616Z,15.88
2022-09-06T23:19:02.399Z,15.81
2022-09-06T23:21:34.151Z,15.72
2022-09-06T23:24:06.420Z,15.77
2022-09-06T23:26:38.356Z,15.59
2022-09-06T23:29:10.244Z,15.62
2022-09-06T23:31:42.727Z,15.67
2022-09-06T23:34:14.415Z,15.67
2022-09-06T23:36:46.113Z,15.75
2022-09-06T23:39:18.082Z,15.74
2022-09-06T23:41:49.745Z,15.69
2022-09-06T23:44:21.521Z,15.69
2022-09-06T23:46:53.268Z,15.70
2022-09-06T23:49:25.117Z,15.55
2022-09-06T23:51:57.032Z,15.51
2022-09-06T23:54:28.745Z,15.47
2022-09-06T23:57:00.542Z,15.58
2022-09-06T23:59:32.364Z,15.56
